sensor_id;sensor_type;location;lat;lon;timestamp;P1;durP1;ratioP1;P2;durP2;ratioP2
20084;SDS011;10202;48.474;9.138;2024-03-02T00:00:51;16.48;;;7.25;;
20084;SDS011;10202;48.474;9.138;2024-03-02T00:03:17;10.63;;;7.15;;
20084;SDS011;10202;48.474;9.138;2024-03-02T00:05:44;15.05;;;7.45;;
20084;SDS011;10202;48.474;9.138;2024-03-02T00:08:24;13.93;;;7.43;;
20084;SDS011;10202;48.474;9.138;2024-03-02T00:10:56;13.05;;;7.13;;
20084;SDS011;10202;48.474;9.138;2024-03-02T00:13:28;12.05;;;6.80;;
20084;SDS011;10202;48.474;9.138;2024-03-02T00:15:56;13.68;;;7.03;;
20084;SDS011;10202;48.474;9.138;2024-03-02T00:18:29;10.27;;;6.28;;
20084;SDS011;10202;48.474;9.138;2024-03-02T00:20:56;9.60;;;6.32;;
20084;SDS011;10202;48.474;9.138;2024-03-02T00:23:29;9.98;;;5.93;;
20084;SDS011;10202;48.474;9.138;2024-03-02T00:25:58;12.63;;;7.22;;
20084;SDS011;10202;48.474;9.138;2024-03-02T00:28:30;11.70;;;7.00;;
20084;SDS011;10202;48.474;9.138;2024-03-02T00:31:09;13.85;;;6.35;;
20084;SDS011;10202;48.474;9.138;2024-03-02T00:36:11;11.32;;;6.50;;
20084;SDS011;10202;48.474;9.138;2024-03-02T00:38:48;15.05;;;6.97;;
20084;SDS011;10202;48.474;9.138;2024-03-02T00:41:27;10.55;;;5.97;;
20084;SDS011;10202;48.474;9.138;2024-03-02T00:44:03;10.52;;;6.43;;
20084;SDS011;10202;48.474;9.138;2024-03-02T00:46:34;14.65;;;7.63;;
20084;SDS011;10202;48.474;9.138;2024-03-02T00:49:04;14.07;;;7.07;;
20084;SDS011;10202;48.474;9.138;2024-03-02T00:51:53;10.50;;;6.22;;
20084;SDS011;10202;48.474;9.138;2024-03-02T00:54:20;13.77;;;6.15;;
20084;SDS011;10202;48.474;9.138;2024-03-02T00:56:49;12.15;;;6.78;;
20084;SDS011;10202;48.474;9.138;2024-03-02T00:59:20;10.32;;;5.70;;
20084;SDS011;10202;48.474;9.138;2024-03-02T01:01:51;8.30;;;5.55;;
20084;SDS011;10202;48.474;9.138;2024-03-02T01:04:17;8.52;;;5.03;;
20084;SDS011;10202;48.474;9.138;2024-03-02T01:06:45;6.85;;;4.85;;
20084;SDS011;10202;48.474;9.138;2024-03-02T01:09:10;12.95;;;5.60;;
20084;SDS011;10202;48.474;9.138;2024-03-02T01:11:42;10.20;;;5.53;;
20084;SDS011;10202;48.474;9.138;2024-03-02T01:14:13;9.30;;;5.35;;
20084;SDS011;10202;48.474;9.138;2024-03-02T01:16:41;10.32;;;5.70;;
20084;SDS011;10202;48.474;9.138;2024-03-02T01:19:09;8.23;;;5.25;;
20084;SDS011;10202;48.474;9.138;2024-03-02T01:21:35;9.48;;;5.78;;
20084;SDS011;10202;48.474;9.138;2024-03-02T01:24:01;8.68;;;4.90;;
20084;SDS011;10202;48.474;9.138;2024-03-02T01:26:27;11.75;;;6.03;;
20084;SDS011;10202;48.474;9.138;2024-03-02T01:28:55;12.10;;;5.80;;
20084;SDS011;10202;48.474;9.138;2024-03-02T01:31:21;10.68;;;6.18;;
20084;SDS011;10202;48.474;9.138;2024-03-02T01:33:47;12.23;;;6.18;;
20084;SDS011;10202;48.474;9.138;2024-03-02T01:36:12;15.07;;;6.13;;
20084;SDS011;10202;48.474;9.138;2024-03-02T01:38:38;9.13;;;5.53;;
20084;SDS011;10202;48.474;9.138;2024-03-02T01:41:03;9.57;;;5.68;;
20084;SDS011;10202;48.474;9.138;2024-03-02T01:43:29;8.25;;;5.10;;
20084;SDS011;10202;48.474;9.138;2024-03-02T01:45:54;9.73;;;5.68;;
20084;SDS011;10202;48.474;9.138;2024-03-02T01:48:21;9.50;;;5.20;;
20084;SDS011;10202;48.474;9.138;2024-03-02T01:50:49;9.25;;;5.00;;
20084;SDS011;10202;48.474;9.138;2024-03-02T01:53:19;11.82;;;6.43;;
20084;SDS011;10202;48.474;9.138;2024-03-02T01:55:45;10.10;;;5.80;;
20084;SDS011;10202;48.474;9.138;2024-03-02T01:58:13;12.05;;;5.80;;
20084;SDS011;10202;48.474;9.138;2024-03-02T02:00:43;10.55;;;5.82;;
20084;SDS011;10202;48.474;9.138;2024-03-02T02:03:10;8.75;;;5.40;;
20084;SDS011;10202;48.474;9.138;2024-03-02T02:05:38;11.70;;;5.95;;
20084;SDS011;10202;48.474;9.138;2024-03-02T02:08:08;10.63;;;6.30;;
20084;SDS011;10202;48.474;9.138;2024-03-02T02:10:33;9.00;;;5.50;;
20084;SDS011;10202;48.474;9.138;2024-03-02T02:13:01;9.05;;;5.65;;
20084;SDS011;10202;48.474;9.138;2024-03-02T02:15:28;8.70;;;5.22;;
20084;SDS011;10202;48.474;9.138;2024-03-02T02:17:56;12.70;;;6.00;;
20084;SDS011;10202;48.474;9.138;2024-03-02T02:20:25;12.13;;;6.25;;
20084;SDS011;10202;48.474;9.138;2024-03-02T02:25:28;10.20;;;5.78;;
20084;SDS011;10202;48.474;9.138;2024-03-02T02:27:55;8.75;;;5.22;;
20084;SDS011;10202;48.474;9.138;2024-03-02T02:30:27;8.93;;;5.40;;
20084;SDS011;10202;48.474;9.138;2024-03-02T02:32:55;10.15;;;5.75;;
20084;SDS011;10202;48.474;9.138;2024-03-02T02:35:21;8.40;;;5.45;;
20084;SDS011;10202;48.474;9.138;2024-03-02T02:37:49;8.73;;;5.70;;
20084;SDS011;10202;48.474;9.138;2024-03-02T02:40:16;10.18;;;5.93;;
20084;SDS011;10202;48.474;9.138;2024-03-02T02:42:44;10.70;;;5.78;;
20084;SDS011;10202;48.474;9.138;2024-03-02T02:45:13;7.47;;;4.95;;
20084;SDS011;10202;48.474;9.138;2024-03-02T02:47:41;10.57;;;5.70;;
20084;SDS011;10202;48.474;9.138;2024-03-02T02:50:10;10.52;;;6.05;;
20084;SDS011;10202;48.474;9.138;2024-03-02T02:52:39;10.13;;;5.75;;
20084;SDS011;10202;48.474;9.138;2024-03-02T02:55:09;8.50;;;5.13;;
20084;SDS011;10202;48.474;9.138;2024-03-02T02:57:37;11.27;;;6.00;;
20084;SDS011;10202;48.474;9.138;2024-03-02T03:00:07;9.50;;;5.90;;
20084;SDS011;10202;48.474;9.138;2024-03-02T03:02:45;10.25;;;5.65;;
20084;SDS011;10202;48.474;9.138;2024-03-02T03:05:13;8.80;;;5.70;;
20084;SDS011;10202;48.474;9.138;2024-03-02T03:07:41;7.70;;;4.90;;
20084;SDS011;10202;48.474;9.138;2024-03-02T03:10:09;9.33;;;5.60;;
20084;SDS011;10202;48.474;9.138;2024-03-02T03:12:38;10.43;;;5.50;;
20084;SDS011;10202;48.474;9.138;2024-03-02T03:15:06;9.82;;;5.55;;
20084;SDS011;10202;48.474;9.138;2024-03-02T03:17:33;11.33;;;6.17;;
20084;SDS011;10202;48.474;9.138;2024-03-02T03:20:06;11.47;;;6.30;;
20084;SDS011;10202;48.474;9.138;2024-03-02T03:22:35;13.23;;;6.00;;
20084;SDS011;10202;48.474;9.138;2024-03-02T03:25:01;10.63;;;5.87;;
20084;SDS011;10202;48.474;9.138;2024-03-02T03:27:30;9.53;;;5.90;;
20084;SDS011;10202;48.474;9.138;2024-03-02T03:29:55;10.87;;;6.17;;
20084;SDS011;10202;48.474;9.138;2024-03-02T03:32:21;10.70;;;6.37;;
20084;SDS011;10202;48.474;9.138;2024-03-02T03:34:52;10.63;;;5.67;;
20084;SDS011;10202;48.474;9.138;2024-03-02T03:37:20;9.13;;;5.57;;
20084;SDS011;10202;48.474;9.138;2024-03-02T03:39:48;11.77;;;6.40;;
20084;SDS011;10202;48.474;9.138;2024-03-02T03:42:15;10.97;;;6.00;;
20084;SDS011;10202;48.474;9.138;2024-03-02T03:44:46;8.93;;;5.80;;
20084;SDS011;10202;48.474;9.138;2024-03-02T03:47:11;12.13;;;6.00;;
20084;SDS011;10202;48.474;9.138;2024-03-02T03:49:37;10.23;;;5.97;;
20084;SDS011;10202;48.474;9.138;2024-03-02T03:52:07;9.90;;;5.83;;
20084;SDS011;10202;48.474;9.138;2024-03-02T03:54:36;10.00;;;5.83;;
20084;SDS011;10202;48.474;9.138;2024-03-02T03:57:05;12.17;;;6.17;;
20084;SDS011;10202;48.474;9.138;2024-03-02T03:59:31;11.47;;;6.67;;
20084;SDS011;10202;48.474;9.138;2024-03-02T04:01:59;9.53;;;5.40;;
20084;SDS011;10202;48.474;9.138;2024-03-02T04:04:27;9.90;;;6.10;;
20084;SDS011;10202;48.474;9.138;2024-03-02T04:06:53;8.93;;;5.70;;
20084;SDS011;10202;48.474;9.138;2024-03-02T04:09:19;11.27;;;6.00;;
20084;SDS011;10202;48.474;9.138;2024-03-02T04:11:49;11.17;;;6.23;;
20084;SDS011;10202;48.474;9.138;2024-03-02T04:14:19;11.77;;;6.17;;
20084;SDS011;10202;48.474;9.138;2024-03-02T04:16:45;11.63;;;6.67;;
20084;SDS011;10202;48.474;9.138;2024-03-02T04:19:11;13.17;;;6.17;;
20084;SDS011;10202;48.474;9.138;2024-03-02T04:21:39;12.13;;;6.70;;
20084;SDS011;10202;48.474;9.138;2024-03-02T04:24:05;11.00;;;6.67;;
20084;SDS011;10202;48.474;9.138;2024-03-02T04:26:35;12.07;;;6.07;;
20084;SDS011;10202;48.474;9.138;2024-03-02T04:29:03;10.47;;;6.07;;
20084;SDS011;10202;48.474;9.138;2024-03-02T04:31:29;14.20;;;6.53;;
20084;SDS011;10202;48.474;9.138;2024-03-02T04:33:54;10.97;;;5.97;;
20084;SDS011;10202;48.474;9.138;2024-03-02T04:36:25;12.10;;;6.40;;
20084;SDS011;10202;48.474;9.138;2024-03-02T04:38:50;17.63;;;6.40;;
20084;SDS011;10202;48.474;9.138;2024-03-02T04:41:20;10.90;;;6.20;;
20084;SDS011;10202;48.474;9.138;2024-03-02T04:43:46;9.47;;;5.90;;
20084;SDS011;10202;48.474;9.138;2024-03-02T04:46:12;11.73;;;6.13;;
20084;SDS011;10202;48.474;9.138;2024-03-02T04:48:37;10.27;;;5.80;;
20084;SDS011;10202;48.474;9.138;2024-03-02T04:51:03;10.27;;;5.77;;
20084;SDS011;10202;48.474;9.138;2024-03-02T04:53:31;9.00;;;5.50;;
20084;SDS011;10202;48.474;9.138;2024-03-02T04:55:56;11.70;;;5.43;;
20084;SDS011;10202;48.474;9.138;2024-03-02T04:58:40;9.17;;;5.27;;
20084;SDS011;10202;48.474;9.138;2024-03-02T05:01:08;7.77;;;4.63;;
20084;SDS011;10202;48.474;9.138;2024-03-02T05:03:34;9.50;;;5.30;;
20084;SDS011;10202;48.474;9.138;2024-03-02T05:06:02;9.87;;;5.67;;
20084;SDS011;10202;48.474;9.138;2024-03-02T05:08:36;8.57;;;5.17;;
20084;SDS011;10202;48.474;9.138;2024-03-02T05:11:01;9.20;;;5.50;;
20084;SDS011;10202;48.474;9.138;2024-03-02T05:13:48;9.50;;;5.77;;
20084;SDS011;10202;48.474;9.138;2024-03-02T05:16:13;10.80;;;5.83;;
20084;SDS011;10202;48.474;9.138;2024-03-02T05:18:39;12.40;;;6.57;;
20084;SDS011;10202;48.474;9.138;2024-03-02T05:21:07;11.13;;;6.50;;
20084;SDS011;10202;48.474;9.138;2024-03-02T05:23:34;16.03;;;6.70;;
20084;SDS011;10202;48.474;9.138;2024-03-02T05:26:00;11.67;;;6.37;;
20084;SDS011;10202;48.474;9.138;2024-03-02T05:28:28;11.53;;;6.90;;
20084;SDS011;10202;48.474;9.138;2024-03-02T05:30:54;13.43;;;7.50;;
20084;SDS011;10202;48.474;9.138;2024-03-02T05:33:22;13.10;;;7.83;;
20084;SDS011;10202;48.474;9.138;2024-03-02T05:35:47;13.47;;;7.37;;
20084;SDS011;10202;48.474;9.138;2024-03-02T05:38:16;14.07;;;7.53;;
20084;SDS011;10202;48.474;9.138;2024-03-02T05:40:46;12.43;;;6.70;;
20084;SDS011;10202;48.474;9.138;2024-03-02T05:43:14;13.23;;;6.63;;
20084;SDS011;10202;48.474;9.138;2024-03-02T05:45:42;11.63;;;6.20;;
20084;SDS011;10202;48.474;9.138;2024-03-02T05:48:07;9.47;;;5.57;;
20084;SDS011;10202;48.474;9.138;2024-03-02T05:50:35;9.50;;;5.33;;
20084;SDS011;10202;48.474;9.138;2024-03-02T05:53:08;11.73;;;6.43;;
20084;SDS011;10202;48.474;9.138;2024-03-02T05:55:36;13.50;;;7.40;;
20084;SDS011;10202;48.474;9.138;2024-03-02T05:58:06;14.83;;;7.77;;
20084;SDS011;10202;48.474;9.138;2024-03-02T06:00:32;11.90;;;6.70;;
20084;SDS011;10202;48.474;9.138;2024-03-02T06:02:58;14.40;;;6.97;;
20084;SDS011;10202;48.474;9.138;2024-03-02T06:05:26;11.47;;;6.90;;
20084;SDS011;10202;48.474;9.138;2024-03-02T06:07:52;14.67;;;8.37;;
20084;SDS011;10202;48.474;9.138;2024-03-02T06:10:17;15.23;;;8.63;;
20084;SDS011;10202;48.474;9.138;2024-03-02T06:12:46;14.63;;;8.50;;
20084;SDS011;10202;48.474;9.138;2024-03-02T06:15:11;15.63;;;8.33;;
20084;SDS011;10202;48.474;9.138;2024-03-02T06:17:37;14.13;;;6.93;;
20084;SDS011;10202;48.474;9.138;2024-03-02T06:20:04;13.63;;;7.30;;
20084;SDS011;10202;48.474;9.138;2024-03-02T06:22:33;14.50;;;6.63;;
20084;SDS011;10202;48.474;9.138;2024-03-02T06:24:58;11.67;;;6.63;;
20084;SDS011;10202;48.474;9.138;2024-03-02T06:27:26;14.83;;;6.80;;
20084;SDS011;10202;48.474;9.138;2024-03-02T06:29:52;11.93;;;6.50;;
20084;SDS011;10202;48.474;9.138;2024-03-02T06:32:17;13.30;;;6.23;;
20084;SDS011;10202;48.474;9.138;2024-03-02T06:34:43;21.47;;;9.40;;
20084;SDS011;10202;48.474;9.138;2024-03-02T06:37:08;29.83;;;11.23;;
20084;SDS011;10202;48.474;9.138;2024-03-02T06:39:34;78.37;;;24.53;;
20084;SDS011;10202;48.474;9.138;2024-03-02T06:42:00;111.70;;;29.70;;
20084;SDS011;10202;48.474;9.138;2024-03-02T06:44:25;66.90;;;23.27;;
20084;SDS011;10202;48.474;9.138;2024-03-02T06:46:53;45.07;;;17.47;;
20084;SDS011;10202;48.474;9.138;2024-03-02T06:49:19;23.10;;;11.40;;
20084;SDS011;10202;48.474;9.138;2024-03-02T06:51:44;16.03;;;8.30;;
20084;SDS011;10202;48.474;9.138;2024-03-02T06:54:10;10.90;;;6.77;;
20084;SDS011;10202;48.474;9.138;2024-03-02T06:56:38;13.60;;;7.30;;
20084;SDS011;10202;48.474;9.138;2024-03-02T06:59:08;12.53;;;7.10;;
20084;SDS011;10202;48.474;9.138;2024-03-02T07:01:36;12.97;;;7.20;;
20084;SDS011;10202;48.474;9.138;2024-03-02T07:04:02;12.27;;;6.97;;
20084;SDS011;10202;48.474;9.138;2024-03-02T07:06:27;13.57;;;7.53;;
20084;SDS011;10202;48.474;9.138;2024-03-02T07:08:53;17.43;;;9.07;;
20084;SDS011;10202;48.474;9.138;2024-03-02T07:11:18;20.20;;;9.23;;
20084;SDS011;10202;48.474;9.138;2024-03-02T07:13:44;19.17;;;9.93;;
20084;SDS011;10202;48.474;9.138;2024-03-02T07:16:09;20.17;;;10.52;;
20084;SDS011;10202;48.474;9.138;2024-03-02T07:18:46;16.23;;;8.40;;
20084;SDS011;10202;48.474;9.138;2024-03-02T07:21:19;18.88;;;9.25;;
20084;SDS011;10202;48.474;9.138;2024-03-02T07:23:44;18.45;;;9.05;;
20084;SDS011;10202;48.474;9.138;2024-03-02T07:26:10;17.50;;;9.35;;
20084;SDS011;10202;48.474;9.138;2024-03-02T07:28:39;15.70;;;8.50;;
20084;SDS011;10202;48.474;9.138;2024-03-02T07:31:06;19.83;;;9.02;;
20084;SDS011;10202;48.474;9.138;2024-03-02T07:33:34;16.55;;;8.43;;
20084;SDS011;10202;48.474;9.138;2024-03-02T07:36:02;13.82;;;7.88;;
20084;SDS011;10202;48.474;9.138;2024-03-02T07:38:28;17.98;;;8.45;;
20084;SDS011;10202;48.474;9.138;2024-03-02T07:40:57;15.82;;;8.50;;
20084;SDS011;10202;48.474;9.138;2024-03-02T07:43:22;15.98;;;7.45;;
20084;SDS011;10202;48.474;9.138;2024-03-02T07:45:50;11.02;;;6.60;;
20084;SDS011;10202;48.474;9.138;2024-03-02T07:48:18;10.13;;;5.90;;
20084;SDS011;10202;48.474;9.138;2024-03-02T07:50:46;9.60;;;5.65;;
20084;SDS011;10202;48.474;9.138;2024-03-02T07:53:11;11.15;;;6.35;;
20084;SDS011;10202;48.474;9.138;2024-03-02T07:55:37;12.05;;;6.72;;
20084;SDS011;10202;48.474;9.138;2024-03-02T07:58:03;14.55;;;8.82;;
20084;SDS011;10202;48.474;9.138;2024-03-02T08:00:33;16.25;;;9.52;;
20084;SDS011;10202;48.474;9.138;2024-03-02T08:03:06;17.20;;;9.77;;
20084;SDS011;10202;48.474;9.138;2024-03-02T08:05:39;17.45;;;9.73;;
20084;SDS011;10202;48.474;9.138;2024-03-02T08:08:10;20.75;;;11.88;;
20084;SDS011;10202;48.474;9.138;2024-03-02T08:10:39;22.92;;;12.40;;
20084;SDS011;10202;48.474;9.138;2024-03-02T08:13:09;26.13;;;15.63;;
20084;SDS011;10202;48.474;9.138;2024-03-02T08:15:35;21.02;;;11.85;;
20084;SDS011;10202;48.474;9.138;2024-03-02T08:18:02;18.50;;;10.80;;
20084;SDS011;10202;48.474;9.138;2024-03-02T08:20:33;18.48;;;10.23;;
20084;SDS011;10202;48.474;9.138;2024-03-02T08:23:01;12.57;;;8.25;;
20084;SDS011;10202;48.474;9.138;2024-03-02T08:25:30;11.80;;;7.70;;
20084;SDS011;10202;48.474;9.138;2024-03-02T08:27:56;18.23;;;8.30;;
20084;SDS011;10202;48.474;9.138;2024-03-02T08:30:24;15.40;;;8.70;;
20084;SDS011;10202;48.474;9.138;2024-03-02T08:32:49;11.55;;;7.00;;
20084;SDS011;10202;48.474;9.138;2024-03-02T08:35:15;12.23;;;7.47;;
20084;SDS011;10202;48.474;9.138;2024-03-02T08:37:45;16.80;;;7.57;;
20084;SDS011;10202;48.474;9.138;2024-03-02T08:40:13;10.82;;;7.13;;
20084;SDS011;10202;48.474;9.138;2024-03-02T08:42:43;15.38;;;7.78;;
20084;SDS011;10202;48.474;9.138;2024-03-02T08:45:11;13.35;;;7.95;;
20084;SDS011;10202;48.474;9.138;2024-03-02T08:47:37;26.90;;;8.32;;
20084;SDS011;10202;48.474;9.138;2024-03-02T08:50:05;17.35;;;8.75;;
20084;SDS011;10202;48.474;9.138;2024-03-02T08:52:36;12.20;;;7.50;;
20084;SDS011;10202;48.474;9.138;2024-03-02T08:55:04;12.27;;;7.22;;
20084;SDS011;10202;48.474;9.138;2024-03-02T08:57:33;11.00;;;6.82;;
20084;SDS011;10202;48.474;9.138;2024-03-02T08:59:59;9.48;;;6.38;;
20084;SDS011;10202;48.474;9.138;2024-03-02T09:02:25;12.02;;;7.13;;
20084;SDS011;10202;48.474;9.138;2024-03-02T09:04:53;11.55;;;7.50;;
20084;SDS011;10202;48.474;9.138;2024-03-02T09:07:23;13.32;;;6.82;;
20084;SDS011;10202;48.474;9.138;2024-03-02T09:09:49;11.60;;;6.55;;
20084;SDS011;10202;48.474;9.138;2024-03-02T09:12:17;12.05;;;6.90;;
20084;SDS011;10202;48.474;9.138;2024-03-02T09:14:46;9.63;;;6.10;;
20084;SDS011;10202;48.474;9.138;2024-03-02T09:17:14;8.75;;;5.85;;
20084;SDS011;10202;48.474;9.138;2024-03-02T09:19:42;9.95;;;5.65;;
20084;SDS011;10202;48.474;9.138;2024-03-02T09:22:12;7.93;;;5.60;;
20084;SDS011;10202;48.474;9.138;2024-03-02T09:24:38;8.73;;;5.32;;
20084;SDS011;10202;48.474;9.138;2024-03-02T09:27:06;7.63;;;5.07;;
20084;SDS011;10202;48.474;9.138;2024-03-02T09:29:34;8.40;;;5.50;;
20084;SDS011;10202;48.474;9.138;2024-03-02T09:32:03;89.47;;;28.88;;
20084;SDS011;10202;48.474;9.138;2024-03-02T09:34:33;18.77;;;8.65;;
20084;SDS011;10202;48.474;9.138;2024-03-02T09:37:02;10.88;;;6.45;;
20084;SDS011;10202;48.474;9.138;2024-03-02T09:39:29;10.50;;;5.50;;
20084;SDS011;10202;48.474;9.138;2024-03-02T09:41:57;7.53;;;5.00;;
20084;SDS011;10202;48.474;9.138;2024-03-02T09:44:24;10.55;;;5.85;;
20084;SDS011;10202;48.474;9.138;2024-03-02T09:46:51;9.05;;;6.13;;
20084;SDS011;10202;48.474;9.138;2024-03-02T09:49:19;10.38;;;6.20;;
20084;SDS011;10202;48.474;9.138;2024-03-02T09:51:49;8.95;;;5.57;;
20084;SDS011;10202;48.474;9.138;2024-03-02T09:54:15;10.50;;;6.35;;
20084;SDS011;10202;48.474;9.138;2024-03-02T09:56:44;9.73;;;6.22;;
20084;SDS011;10202;48.474;9.138;2024-03-02T09:59:14;8.40;;;6.03;;
20084;SDS011;10202;48.474;9.138;2024-03-02T10:04:28;11.13;;;6.68;;
20084;SDS011;10202;48.474;9.138;2024-03-02T10:07:15;10.15;;;6.25;;
20084;SDS011;10202;48.474;9.138;2024-03-02T10:09:47;7.05;;;4.80;;
20084;SDS011;10202;48.474;9.138;2024-03-02T10:12:14;7.93;;;5.18;;
20084;SDS011;10202;48.474;9.138;2024-03-02T10:14:42;10.20;;;6.05;;
20084;SDS011;10202;48.474;9.138;2024-03-02T10:17:13;8.35;;;5.47;;
20084;SDS011;10202;48.474;9.138;2024-03-02T10:19:40;8.68;;;5.68;;
20084;SDS011;10202;48.474;9.138;2024-03-02T10:22:07;8.48;;;5.55;;
20084;SDS011;10202;48.474;9.138;2024-03-02T10:24:42;8.35;;;5.90;;
20084;SDS011;10202;48.474;9.138;2024-03-02T10:27:14;7.78;;;5.70;;
20084;SDS011;10202;48.474;9.138;2024-03-02T10:29:48;9.35;;;5.97;;
20084;SDS011;10202;48.474;9.138;2024-03-02T10:32:16;8.60;;;5.68;;
20084;SDS011;10202;48.474;9.138;2024-03-02T10:34:45;8.32;;;5.85;;
20084;SDS011;10202;48.474;9.138;2024-03-02T10:37:12;10.70;;;6.43;;
20084;SDS011;10202;48.474;9.138;2024-03-02T10:39:41;9.10;;;5.25;;
20084;SDS011;10202;48.474;9.138;2024-03-02T10:42:14;6.88;;;4.82;;
20084;SDS011;10202;48.474;9.138;2024-03-02T10:44:40;7.95;;;5.07;;
20084;SDS011;10202;48.474;9.138;2024-03-02T10:47:09;7.95;;;4.80;;
20084;SDS011;10202;48.474;9.138;2024-03-02T10:49:44;7.50;;;4.82;;
20084;SDS011;10202;48.474;9.138;2024-03-02T10:52:14;6.50;;;4.25;;
20084;SDS011;10202;48.474;9.138;2024-03-02T10:54:39;5.50;;;3.60;;
20084;SDS011;10202;48.474;9.138;2024-03-02T10:57:05;6.47;;;3.63;;
20084;SDS011;10202;48.474;9.138;2024-03-02T10:59:35;7.85;;;3.70;;
20084;SDS011;10202;48.474;9.138;2024-03-02T11:02:14;3.80;;;2.38;;
20084;SDS011;10202;48.474;9.138;2024-03-02T11:04:43;4.78;;;2.88;;
20084;SDS011;10202;48.474;9.138;2024-03-02T11:07:13;3.95;;;2.63;;
20084;SDS011;10202;48.474;9.138;2024-03-02T11:09:41;2.83;;;2.40;;
20084;SDS011;10202;48.474;9.138;2024-03-02T11:12:13;4.20;;;2.20;;
20084;SDS011;10202;48.474;9.138;2024-03-02T11:14:52;3.88;;;2.95;;
20084;SDS011;10202;48.474;9.138;2024-03-02T11:17:21;4.60;;;3.35;;
20084;SDS011;10202;48.474;9.138;2024-03-02T11:19:49;4.75;;;3.22;;
20084;SDS011;10202;48.474;9.138;2024-03-02T11:22:18;4.13;;;2.90;;
20084;SDS011;10202;48.474;9.138;2024-03-02T11:24:53;3.67;;;2.08;;
20084;SDS011;10202;48.474;9.138;2024-03-02T11:28:06;1.25;;;1.00;;
20084;SDS011;10202;48.474;9.138;2024-03-02T11:33:23;2.85;;;1.60;;
20084;SDS011;10202;48.474;9.138;2024-03-02T11:35:52;2.65;;;2.45;;
20084;SDS011;10202;48.474;9.138;2024-03-02T11:38:23;3.33;;;2.67;;
20084;SDS011;10202;48.474;9.138;2024-03-02T11:41:07;5.72;;;2.28;;
20084;SDS011;10202;48.474;9.138;2024-03-02T11:43:41;3.20;;;1.83;;
20084;SDS011;10202;48.474;9.138;2024-03-02T11:46:12;2.55;;;1.60;;
20084;SDS011;10202;48.474;9.138;2024-03-02T11:48:40;3.35;;;1.98;;
20084;SDS011;10202;48.474;9.138;2024-03-02T11:51:06;1.52;;;1.42;;
20084;SDS011;10202;48.474;9.138;2024-03-02T11:53:34;2.42;;;1.52;;
20084;SDS011;10202;48.474;9.138;2024-03-02T11:56:08;1.70;;;1.30;;
20084;SDS011;10202;48.474;9.138;2024-03-02T11:58:39;1.67;;;1.27;;
20084;SDS011;10202;48.474;9.138;2024-03-02T12:01:10;1.75;;;1.38;;
20084;SDS011;10202;48.474;9.138;2024-03-02T12:03:38;1.83;;;1.35;;
20084;SDS011;10202;48.474;9.138;2024-03-02T12:06:06;2.28;;;1.40;;
20084;SDS011;10202;48.474;9.138;2024-03-02T12:08:37;2.05;;;1.38;;
20084;SDS011;10202;48.474;9.138;2024-03-02T12:11:05;1.63;;;1.20;;
20084;SDS011;10202;48.474;9.138;2024-03-02T12:13:31;0.85;;;0.85;;
20084;SDS011;10202;48.474;9.138;2024-03-02T12:16:02;0.70;;;0.70;;
20084;SDS011;10202;48.474;9.138;2024-03-02T12:18:32;0.93;;;0.82;;
20084;SDS011;10202;48.474;9.138;2024-03-02T12:20:58;1.50;;;1.15;;
20084;SDS011;10202;48.474;9.138;2024-03-02T12:23:26;1.33;;;1.00;;
20084;SDS011;10202;48.474;9.138;2024-03-02T12:25:56;2.22;;;1.10;;
20084;SDS011;10202;48.474;9.138;2024-03-02T12:28:24;2.88;;;1.10;;
20084;SDS011;10202;48.474;9.138;2024-03-02T12:30:50;1.60;;;1.30;;
20084;SDS011;10202;48.474;9.138;2024-03-02T12:33:18;0.80;;;0.80;;
20084;SDS011;10202;48.474;9.138;2024-03-02T12:35:49;1.17;;;0.90;;
20084;SDS011;10202;48.474;9.138;2024-03-02T12:38:15;1.48;;;1.10;;
20084;SDS011;10202;48.474;9.138;2024-03-02T12:40:40;2.17;;;1.20;;
20084;SDS011;10202;48.474;9.138;2024-03-02T12:43:13;1.10;;;0.95;;
20084;SDS011;10202;48.474;9.138;2024-03-02T12:45:39;1.05;;;0.95;;
20084;SDS011;10202;48.474;9.138;2024-03-02T12:48:07;2.78;;;0.95;;
20084;SDS011;10202;48.474;9.138;2024-03-02T12:50:33;0.73;;;0.73;;
20084;SDS011;10202;48.474;9.138;2024-03-02T12:53:01;1.13;;;1.02;;
20084;SDS011;10202;48.474;9.138;2024-03-02T12:55:29;1.55;;;0.80;;
20084;SDS011;10202;48.474;9.138;2024-03-02T12:57:55;1.10;;;0.80;;
20084;SDS011;10202;48.474;9.138;2024-03-02T13:00:24;2.00;;;0.80;;
20084;SDS011;10202;48.474;9.138;2024-03-02T13:02:52;1.52;;;1.08;;
20084;SDS011;10202;48.474;9.138;2024-03-02T13:05:18;2.53;;;1.00;;
20084;SDS011;10202;48.474;9.138;2024-03-02T13:07:49;1.45;;;1.10;;
20084;SDS011;10202;48.474;9.138;2024-03-02T13:10:20;3.20;;;2.40;;
20084;SDS011;10202;48.474;9.138;2024-03-02T13:12:48;4.53;;;1.40;;
20084;SDS011;10202;48.474;9.138;2024-03-02T13:15:16;1.65;;;1.30;;
20084;SDS011;10202;48.474;9.138;2024-03-02T13:17:49;1.20;;;1.10;;
20084;SDS011;10202;48.474;9.138;2024-03-02T13:20:20;1.52;;;0.95;;
20084;SDS011;10202;48.474;9.138;2024-03-02T13:22:49;1.15;;;0.88;;
20084;SDS011;10202;48.474;9.138;2024-03-02T13:25:17;1.20;;;0.90;;
20084;SDS011;10202;48.474;9.138;2024-03-02T13:27:44;0.95;;;0.90;;
20084;SDS011;10202;48.474;9.138;2024-03-02T13:30:15;1.08;;;0.90;;
20084;SDS011;10202;48.474;9.138;2024-03-02T13:32:43;1.00;;;0.90;;
20084;SDS011;10202;48.474;9.138;2024-03-02T13:35:10;1.27;;;1.13;;
20084;SDS011;10202;48.474;9.138;2024-03-02T13:37:40;1.10;;;0.90;;
20084;SDS011;10202;48.474;9.138;2024-03-02T13:40:08;2.17;;;0.80;;
20084;SDS011;10202;48.474;9.138;2024-03-02T13:42:39;0.65;;;0.63;;
20084;SDS011;10202;48.474;9.138;2024-03-02T13:45:12;1.20;;;1.00;;
20084;SDS011;10202;48.474;9.138;2024-03-02T13:47:42;0.70;;;0.70;;
20084;SDS011;10202;48.474;9.138;2024-03-02T13:50:08;1.35;;;0.82;;
20084;SDS011;10202;48.474;9.138;2024-03-02T13:52:39;2.15;;;0.70;;
20084;SDS011;10202;48.474;9.138;2024-03-02T13:55:05;3.22;;;0.88;;
20084;SDS011;10202;48.474;9.138;2024-03-02T13:57:33;1.27;;;0.82;;
20084;SDS011;10202;48.474;9.138;2024-03-02T14:00:01;0.50;;;0.50;;
20084;SDS011;10202;48.474;9.138;2024-03-02T14:02:39;0.60;;;0.60;;
20084;SDS011;10202;48.474;9.138;2024-03-02T14:05:09;0.70;;;0.65;;
20084;SDS011;10202;48.474;9.138;2024-03-02T14:07:41;0.93;;;0.67;;
20084;SDS011;10202;48.474;9.138;2024-03-02T14:10:11;1.48;;;0.80;;
20084;SDS011;10202;48.474;9.138;2024-03-02T14:12:37;0.93;;;0.63;;
20084;SDS011;10202;48.474;9.138;2024-03-02T14:15:08;1.42;;;0.82;;
20084;SDS011;10202;48.474;9.138;2024-03-02T14:17:38;0.50;;;0.50;;
20084;SDS011;10202;48.474;9.138;2024-03-02T14:20:06;0.85;;;0.70;;
20084;SDS011;10202;48.474;9.138;2024-03-02T14:22:35;0.50;;;0.50;;
20084;SDS011;10202;48.474;9.138;2024-03-02T14:25:05;0.70;;;0.70;;
20084;SDS011;10202;48.474;9.138;2024-03-02T14:27:31;0.90;;;0.70;;
20084;SDS011;10202;48.474;9.138;2024-03-02T14:29:57;1.10;;;0.50;;
20084;SDS011;10202;48.474;9.138;2024-03-02T14:32:25;1.25;;;0.70;;
20084;SDS011;10202;48.474;9.138;2024-03-02T14:34:53;2.33;;;0.77;;
20084;SDS011;10202;48.474;9.138;2024-03-02T14:37:19;0.95;;;0.90;;
20084;SDS011;10202;48.474;9.138;2024-03-02T14:39:46;0.68;;;0.63;;
20084;SDS011;10202;48.474;9.138;2024-03-02T14:42:17;0.68;;;0.60;;
20084;SDS011;10202;48.474;9.138;2024-03-02T14:44:45;0.93;;;0.80;;
20084;SDS011;10202;48.474;9.138;2024-03-02T14:47:11;0.70;;;0.68;;
20084;SDS011;10202;48.474;9.138;2024-03-02T14:49:39;4.47;;;2.08;;
20084;SDS011;10202;48.474;9.138;2024-03-02T14:52:08;1.08;;;0.90;;
20084;SDS011;10202;48.474;9.138;2024-03-02T14:54:38;0.68;;;0.60;;
20084;SDS011;10202;48.474;9.138;2024-03-02T14:57:06;0.70;;;0.70;;
20084;SDS011;10202;48.474;9.138;2024-03-02T14:59:33;1.25;;;0.70;;